Time;durP1;ratioP1;P1;durP2;ratioP2;P2;SDS_P1;SDS_P2;PMS_P1;PMS_P2;Temp;Humidity;BMP_temperature;BMP_pressure;BME280_temperature;BME280_humidity;BME280_pressure;Samples;Min_cycle;Max_cycle;Signal;HPM_P1;HPM_P2
2022/05/02 00:00:44;;;;;;;15.30;9.85;;;14.70;99.90;;;;;;5065970;28;20021;-77
2022/05/02 00:03:11;;;;;;;13.10;10.48;;;14.70;99.90;;;;;;5059855;28;20036;-77
2022/05/02 00:05:38;;;;;;;13.93;9.88;;;14.70;99.90;;;;;;5078538;28;20021;-77
2022/05/02 00:08:04;;;;;;;10.55;9.32;;;14.70;99.90;;;;;;5079010;28;20513;-77
2022/05/02 00:10:30;;;;;;;12.48;9.90;;;14.70;99.90;;;;;;5069336;28;20028;-77
2022/05/02 00:12:56;;;;;;;13.98;10.38;;;14.60;99.90;;;;;;5074153;28;20043;-77
2022/05/02 00:15:22;;;;;;;13.15;9.77;;;14.60;99.90;;;;;;5076045;28;20514;-77
2022/05/02 00:17:58;;;;;;;12.25;10.05;;;14.60;99.90;;;;;;5089810;28;20028;-77
2022/05/02 00:20:28;;;;;;;14.52;10.23;;;14.60;99.90;;;;;;5070470;28;20029;-76
2022/05/02 00:22:55;;;;;;;11.63;8.93;;;14.60;99.90;;;;;;5076122;28;20028;-77
2022/05/02 00:25:21;;;;;;;13.23;10.60;;;14.60;99.90;;;;;;5066722;28;20032;-77
2022/05/02 00:27:47;;;;;;;14.75;10.90;;;14.50;99.90;;;;;;5079228;28;20028;-77
2022/05/02 00:30:14;;;;;;;12.57;9.68;;;14.50;99.90;;;;;;5083835;28;20016;-77
2022/05/02 00:32:40;;;;;;;12.07;10.52;;;14.50;99.90;;;;;;5090978;28;20016;-77
2022/05/02 00:35:06;;;;;;;14.68;10.48;;;14.50;99.90;;;;;;5089048;28;20085;-77
2022/05/02 00:37:32;;;;;;;12.60;9.63;;;14.50;99.90;;;;;;5083626;28;20035;-77
2022/05/02 00:39:58;;;;;;;12.88;9.48;;;14.50;99.90;;;;;;5088766;28;20532;-77
2022/05/02 00:42:24;;;;;;;13.45;9.23;;;14.40;99.90;;;;;;5075731;28;20029;-77
2022/05/02 00:44:50;;;;;;;13.73;9.52;;;14.50;99.90;;;;;;5084279;28;20028;-76
2022/05/02 00:47:20;;;;;;;12.20;9.88;;;14.40;99.90;;;;;;5084760;28;20036;-77
2022/05/02 00:49:49;;;;;;;10.85;8.68;;;14.40;99.90;;;;;;5082244;28;20043;-77
2022/05/02 00:52:16;;;;;;;11.82;8.90;;;14.40;99.90;;;;;;5076432;28;20517;-77
2022/05/02 00:54:43;;;;;;;13.80;9.57;;;14.40;99.90;;;;;;5085799;28;20103;-77
2022/05/02 00:57:12;;;;;;;12.32;9.52;;;14.40;99.90;;;;;;5087258;28;20040;-77
2022/05/02 00:59:39;;;;;;;10.57;8.65;;;14.30;99.90;;;;;;5081135;28;20021;-76
2022/05/02 01:02:06;;;;;;;10.35;8.68;;;14.30;99.90;;;;;;5076217;28;20021;-76
2022/05/02 01:04:32;;;;;;;12.65;9.95;;;14.40;99.90;;;;;;5074006;28;20028;-76
2022/05/02 01:07:10;;;;;;;12.82;9.20;;;14.30;99.90;;;;;;5064804;28;20037;-77
2022/05/02 01:09:38;;;;;;;10.80;8.75;;;14.30;99.90;;;;;;5080733;28;20158;-76
2022/05/02 01:12:09;;;;;;;11.88;8.98;;;14.30;99.90;;;;;;5082790;28;20078;-77
2022/05/02 01:14:35;;;;;;;9.60;7.95;;;14.30;99.90;;;;;;5064566;28;20035;-77
2022/05/02 01:17:03;;;;;;;13.65;9.68;;;14.30;99.90;;;;;;5085509;28;20107;-76
2022/05/02 01:19:28;;;;;;;14.30;9.48;;;14.20;99.90;;;;;;5085628;28;20555;-77
2022/05/02 01:21:54;;;;;;;12.77;8.93;;;14.20;99.90;;;;;;5073429;28;20016;-77
2022/05/02 01:24:20;;;;;;;16.17;10.52;;;14.20;99.90;;;;;;5073314;28;20028;-76
2022/05/02 01:26:46;;;;;;;15.07;9.45;;;14.20;99.90;;;;;;5081160;28;20036;-76
2022/05/02 01:29:11;;;;;;;15.50;9.35;;;14.20;99.90;;;;;;5087192;28;20032;-77
2022/05/02 01:31:37;;;;;;;12.40;9.57;;;14.20;99.90;;;;;;5079661;28;20028;-77
2022/05/02 01:34:03;;;;;;;14.00;9.55;;;14.10;99.90;;;;;;5082916;28;20131;-77
2022/05/02 01:36:28;;;;;;;10.18;8.18;;;14.10;99.90;;;;;;5085790;28;20541;-77
2022/05/02 01:38:54;;;;;;;12.75;9.93;;;14.10;99.90;;;;;;5078833;28;20555;-77
2022/05/02 01:41:20;;;;;;;12.20;9.32;;;14.00;99.90;;;;;;5059757;28;20043;-77
2022/05/02 01:43:46;;;;;;;12.40;9.38;;;14.10;99.90;;;;;;5074468;28;20028;-77
2022/05/02 01:46:13;;;;;;;13.38;10.35;;;14.10;99.90;;;;;;5075717;28;20073;-77
2022/05/02 01:48:39;;;;;;;12.25;9.10;;;14.10;99.90;;;;;;5081366;28;20031;-77
2022/05/02 01:51:05;;;;;;;16.05;10.20;;;14.00;99.90;;;;;;5062982;28;20025;-77
2022/05/02 01:53:31;;;;;;;14.48;10.25;;;13.90;99.90;;;;;;5087213;28;20409;-77
2022/05/02 01:55:57;;;;;;;15.75;10.90;;;13.90;99.90;;;;;;5081829;28;20111;-77
2022/05/02 01:58:22;;;;;;;13.93;9.98;;;13.90;99.90;;;;;;5078519;28;20048;-77
2022/05/02 02:00:48;;;;;;;14.15;9.65;;;14.00;99.90;;;;;;5074155;28;20566;-77
2022/05/02 02:03:14;;;;;;;14.02;9.80;;;13.90;99.90;;;;;;5078638;28;20064;-77
2022/05/02 02:05:49;;;;;;;12.57;9.70;;;13.80;99.90;;;;;;5081681;28;20029;-77
2022/05/02 02:08:24;;;;;;;12.93;9.98;;;13.90;99.90;;;;;;5084781;28;20043;-77
2022/05/02 02:10:53;;;;;;;15.63;11.40;;;13.80;99.90;;;;;;5077063;28;20557;-77
2022/05/02 02:13:19;;;;;;;14.15;11.07;;;13.80;99.90;;;;;;5079053;28;20124;-77
2022/05/02 02:15:46;;;;;;;18.15;13.02;;;13.80;99.90;;;;;;5063160;28;20020;-77
2022/05/02 02:18:12;;;;;;;13.98;11.32;;;13.80;99.90;;;;;;5074923;28;20024;-77
2022/05/02 02:20:41;;;;;;;13.73;10.60;;;13.70;99.90;;;;;;5082242;28;20028;-77
2022/05/02 02:23:07;;;;;;;15.45;10.55;;;13.60;99.90;;;;;;5079602;28;20016;-76
2022/05/02 02:25:32;;;;;;;13.00;9.90;;;13.60;99.90;;;;;;5066476;28;20025;-77
2022/05/02 02:28:00;;;;;;;14.48;9.88;;;13.60;99.90;;;;;;5065513;28;20107;-77
2022/05/02 02:30:26;;;;;;;13.40;9.95;;;13.60;99.90;;;;;;5080085;28;20024;-77
2022/05/02 02:32:52;;;;;;;12.88;10.43;;;13.60;99.90;;;;;;5087583;28;20020;-76
2022/05/02 02:35:20;;;;;;;13.88;10.15;;;13.60;99.90;;;;;;5077846;28;20086;-77
2022/05/02 02:37:47;;;;;;;13.75;10.93;;;13.60;99.90;;;;;;5075303;28;20481;-77
2022/05/02 02:40:13;;;;;;;17.60;11.15;;;13.60;99.90;;;;;;5076318;28;20035;-76
2022/05/02 02:42:39;;;;;;;11.95;8.95;;;13.60;99.90;;;;;;5062268;28;20024;-77
2022/05/02 02:45:05;;;;;;;11.68;9.90;;;13.70;99.90;;;;;;5081763;28;20016;-76
2022/05/02 02:47:30;;;;;;;13.40;9.82;;;13.60;99.90;;;;;;5058171;28;20075;-76
2022/05/02 02:49:56;;;;;;;14.60;9.40;;;13.70;99.90;;;;;;5076824;28;20027;-77
2022/05/02 02:52:22;;;;;;;16.77;9.65;;;13.60;99.90;;;;;;5078153;28;20608;-77
2022/05/02 02:54:48;;;;;;;14.13;10.38;;;13.50;99.90;;;;;;5086281;28;20557;-77
2022/05/02 02:57:13;;;;;;;14.55;9.98;;;13.50;99.90;;;;;;5073764;28;20032;-77
2022/05/02 02:59:39;;;;;;;13.73;10.40;;;13.50;99.90;;;;;;5088610;28;20494;-77
2022/05/02 03:02:06;;;;;;;16.65;12.05;;;13.50;99.90;;;;;;5083520;28;20111;-77
2022/05/02 03:07:17;;;;;;;17.80;11.90;;;13.40;99.90;;;;;;5071532;28;20039;-77
2022/05/02 03:09:43;;;;;;;17.38;11.45;;;13.40;99.90;;;;;;5079348;28;20028;-76
2022/05/02 03:12:09;;;;;;;16.92;11.35;;;13.40;99.90;;;;;;5083363;28;20036;-76
2022/05/02 03:14:35;;;;;;;18.77;10.93;;;13.40;99.90;;;;;;5086491;28;20032;-76
2022/05/02 03:17:01;;;;;;;14.25;10.40;;;13.30;99.90;;;;;;5079372;28;20024;-77
2022/05/02 03:19:26;;;;;;;17.70;12.00;;;13.30;99.90;;;;;;5076552;28;20024;-77
2022/05/02 03:21:52;;;;;;;23.60;12.73;;;13.20;99.90;;;;;;5076264;28;20020;-76
2022/05/02 03:24:18;;;;;;;20.42;13.15;;;13.10;99.90;;;;;;5063597;28;20029;-77
2022/05/02 03:26:44;;;;;;;20.38;14.20;;;13.10;99.90;;;;;;5085344;28;20029;-77
2022/05/02 03:29:10;;;;;;;23.58;13.85;;;13.10;99.90;;;;;;5083135;28;20118;-77
2022/05/02 03:31:36;;;;;;;21.13;14.40;;;13.00;99.90;;;;;;5083374;28;20103;-76
2022/05/02 03:34:01;;;;;;;20.42;14.10;;;13.00;99.90;;;;;;5085607;28;20051;-77
2022/05/02 03:36:27;;;;;;;20.13;13.77;;;13.10;99.90;;;;;;5071687;28;20128;-77
2022/05/02 03:38:53;;;;;;;24.02;14.38;;;13.00;99.90;;;;;;5079781;28;20044;-77
2022/05/02 03:41:19;;;;;;;19.20;13.68;;;13.00;99.90;;;;;;5082689;28;20028;-77
2022/05/02 03:43:45;;;;;;;20.52;14.05;;;13.00;99.90;;;;;;5080396;28;20024;-77
2022/05/02 03:46:10;;;;;;;24.70;15.05;;;13.00;99.90;;;;;;5071234;28;20498;-77
2022/05/02 03:48:36;;;;;;;21.42;15.00;;;12.90;99.90;;;;;;5081831;28;20043;-77
2022/05/02 03:51:02;;;;;;;24.42;15.95;;;12.90;99.90;;;;;;5070705;28;20079;-77
2022/05/02 03:53:27;;;;;;;20.20;15.77;;;12.80;99.90;;;;;;5070491;28;20472;-77
2022/05/02 03:55:53;;;;;;;23.63;15.50;;;12.80;99.90;;;;;;5065492;28;20581;-77
2022/05/02 03:58:19;;;;;;;23.25;14.75;;;12.90;99.90;;;;;;5067950;28;20460;-77
2022/05/02 04:00:46;;;;;;;21.42;15.38;;;12.80;99.90;;;;;;5075048;28;20042;-77
2022/05/02 04:03:12;;;;;;;22.67;15.60;;;12.80;99.90;;;;;;5078919;28;20025;-76
2022/05/02 04:05:39;;;;;;;23.20;15.00;;;12.90;99.90;;;;;;5070702;28;20045;-76
2022/05/02 04:08:05;;;;;;;22.38;14.82;;;12.80;99.90;;;;;;5061025;28;20033;-76
2022/05/02 04:10:31;;;;;;;22.30;14.60;;;12.90;99.90;;;;;;5070024;28;20063;-77
2022/05/02 04:12:56;;;;;;;19.15;14.27;;;12.90;99.90;;;;;;5062102;28;20024;-77
2022/05/02 04:15:22;;;;;;;21.25;14.55;;;12.80;99.90;;;;;;5072008;28;20028;-76
2022/05/02 04:17:48;;;;;;;23.77;15.20;;;12.80;99.90;;;;;;5077601;28;20021;-77
2022/05/02 04:20:14;;;;;;;25.60;16.02;;;12.70;99.90;;;;;;5070609;28;20052;-77
2022/05/02 04:22:41;;;;;;;22.30;14.48;;;12.70;99.90;;;;;;5073502;28;20447;-76
2022/05/02 04:25:07;;;;;;;22.27;15.75;;;12.70;99.90;;;;;;5065093;28;20074;-77
2022/05/02 04:27:33;;;;;;;22.42;15.25;;;12.70;99.90;;;;;;5064475;28;20047;-76
2022/05/02 04:29:59;;;;;;;24.73;16.98;;;12.80;99.90;;;;;;5091239;28;20489;-77
2022/05/02 04:32:25;;;;;;;23.70;15.82;;;12.80;99.90;;;;;;5076404;28;20024;-76
2022/05/02 04:34:53;;;;;;;24.98;16.17;;;12.60;99.90;;;;;;5083041;28;20024;-76
2022/05/02 04:37:18;;;;;;;23.20;15.32;;;12.60;99.90;;;;;;5083847;28;20023;-76
2022/05/02 04:39:44;;;;;;;24.50;17.05;;;12.60;99.90;;;;;;5077532;28;20024;-76
2022/05/02 04:42:10;;;;;;;24.00;16.42;;;12.60;99.90;;;;;;5067042;28;20024;-76
2022/05/02 04:44:36;;;;;;;27.15;17.45;;;12.60;99.90;;;;;;5074774;28;20025;-77
2022/05/02 04:47:02;;;;;;;22.08;16.00;;;12.50;99.90;;;;;;5078174;28;20155;-76
2022/05/02 04:49:28;;;;;;;26.60;16.83;;;12.50;99.90;;;;;;5080956;28;20112;-77
2022/05/02 04:51:54;;;;;;;24.02;16.50;;;12.40;99.90;;;;;;5087247;28;20036;-77
2022/05/02 04:54:19;;;;;;;22.88;16.65;;;12.50;99.90;;;;;;5074951;28;20032;-76
2022/05/02 04:56:45;;;;;;;22.55;15.82;;;12.50;99.90;;;;;;5069990;28;20510;-76
2022/05/02 04:59:11;;;;;;;22.15;14.88;;;12.50;99.90;;;;;;5080304;28;20027;-76
2022/05/02 05:01:37;;;;;;;24.58;16.10;;;12.50;99.90;;;;;;5074130;28;20028;-76
2022/05/02 05:04:02;;;;;;;23.63;14.50;;;12.60;99.90;;;;;;5071834;28;20020;-77
2022/05/02 05:06:28;;;;;;;22.33;14.77;;;12.50;99.90;;;;;;5080943;28;20573;-76
2022/05/02 05:08:54;;;;;;;25.92;15.00;;;12.50;99.90;;;;;;5088440;28;20032;-76
2022/05/02 05:11:39;;;;;;;18.23;13.35;;;12.50;99.90;;;;;;5079614;28;20036;-77
2022/05/02 05:17:24;;;;;;;19.67;13.68;;;12.50;99.90;;;;;;5082144;28;20039;-76
2022/05/02 05:19:59;;;;;;;21.85;15.25;;;12.30;99.90;;;;;;5071778;28;20093;-76
2022/05/02 05:22:34;;;;;;;20.45;14.25;;;12.30;99.90;;;;;;5075260;28;20029;-76
2022/05/02 05:25:15;;;;;;;22.80;13.70;;;12.40;99.90;;;;;;5068226;28;20102;-77
2022/05/02 05:28:09;;;;;;;24.60;15.68;;;12.30;99.90;;;;;;5060968;28;20028;-77
2022/05/02 05:30:44;;;;;;;22.88;15.75;;;12.30;99.90;;;;;;5084696;28;20131;-77
2022/05/02 05:33:30;;;;;;;22.30;15.02;;;12.40;99.90;;;;;;5060603;28;20063;-77
2022/05/02 05:36:07;;;;;;;24.80;15.82;;;12.40;99.90;;;;;;5081643;28;20017;-77
2022/05/02 05:38:41;;;;;;;24.70;15.75;;;12.40;99.90;;;;;;5084980;28;20028;-76
2022/05/02 05:41:27;;;;;;;31.67;16.75;;;12.30;99.90;;;;;;5081423;28;20032;-76
2022/05/02 05:43:53;;;;;;;28.80;15.40;;;12.30;99.90;;;;;;5075589;28;20040;-77
2022/05/02 05:46:40;;;;;;;22.80;15.60;;;12.30;99.90;;;;;;5079169;28;20406;-76
2022/05/02 05:49:13;;;;;;;23.23;15.80;;;12.40;99.90;;;;;;5084818;28;20038;-77
2022/05/02 05:51:39;;;;;;;25.17;14.30;;;12.50;99.90;;;;;;5056733;28;20047;-76
2022/05/02 05:54:29;;;;;;;21.52;14.73;;;12.60;99.90;;;;;;5063028;28;20483;-76
2022/05/02 05:57:09;;;;;;;20.30;14.38;;;12.60;99.90;;;;;;5079643;28;20122;-77
2022/05/02 05:59:56;;;;;;;22.67;15.23;;;12.60;99.90;;;;;;5080271;28;20037;-76
2022/05/02 06:02:39;;;;;;;23.77;15.38;;;12.60;99.90;;;;;;5080878;28;20055;-76
2022/05/02 06:05:06;;;;;;;22.55;14.80;;;12.70;99.90;;;;;;5080870;28;20062;-76
2022/05/02 06:07:33;;;;;;;19.88;14.30;;;12.80;99.90;;;;;;5080846;28;20028;-76
2022/05/02 06:10:02;;;;;;;26.40;15.05;;;12.70;99.90;;;;;;5084597;28;20128;-77
2022/05/02 06:12:31;;;;;;;23.77;16.45;;;12.90;99.90;;;;;;5059920;28;20029;-77
2022/05/02 06:20:31;;;;;;;23.98;15.48;;;13.10;99.90;;;;;;5080688;28;20031;-77
2022/05/02 06:23:00;;;;;;;21.25;14.48;;;13.20;99.90;;;;;;5071360;28;20401;-76
2022/05/02 06:25:29;;;;;;;19.95;13.80;;;13.20;99.90;;;;;;5070060;28;20066;-77
2022/05/02 06:27:57;;;;;;;19.13;13.27;;;13.30;99.90;;;;;;5064913;28;20067;-76
2022/05/02 06:30:23;;;;;;;26.85;14.48;;;13.30;99.90;;;;;;5057804;28;20021;-77
2022/05/02 06:32:52;;;;;;;19.13;14.25;;;13.40;99.90;;;;;;5058863;28;20032;-77
2022/05/02 06:35:18;;;;;;;22.10;15.10;;;13.40;99.90;;;;;;5074684;28;20020;-77
2022/05/02 06:37:50;;;;;;;27.10;16.58;;;13.60;99.90;;;;;;5081832;28;20021;-76
2022/05/02 06:40:35;;;;;;;22.95;15.98;;;13.50;99.90;;;;;;5078555;28;20115;-77
2022/05/02 06:43:13;;;;;;;24.00;16.48;;;13.70;99.90;;;;;;5077981;28;20049;-77
2022/05/02 06:45:55;;;;;;;22.65;14.80;;;13.60;99.90;;;;;;5068457;28;20095;-76
2022/05/02 06:48:33;;;;;;;24.02;16.10;;;13.60;99.90;;;;;;5059238;28;20035;-76
2022/05/02 06:51:04;;;;;;;20.48;14.57;;;13.70;99.90;;;;;;5077678;28;20032;-76
2022/05/02 06:53:30;;;;;;;;;;;13.70;99.90;;;;;;5071404;28;20029;-77
2022/05/02 06:56:21;;;;;;;26.95;14.45;;;13.70;99.90;;;;;;5076087;28;19912;-77
2022/05/02 06:59:14;;;;;;;24.33;14.70;;;13.90;99.90;;;;;;5079050;28;20016;-77
2022/05/02 07:02:00;;;;;;;24.58;15.00;;;14.20;99.90;;;;;;5064208;28;20035;-77
2022/05/02 07:04:42;;;;;;;21.95;14.32;;;14.20;99.90;;;;;;5073319;28;20017;-77
2022/05/02 07:07:46;;;;;;;21.55;15.77;;;14.20;99.90;;;;;;5076289;28;20036;-77
2022/05/02 07:10:29;;;;;;;21.55;15.18;;;13.90;99.90;;;;;;5066935;28;20065;-77
2022/05/02 07:13:29;;;;;;;24.65;14.40;;;13.90;99.90;;;;;;5061411;28;20031;-77
2022/05/02 07:16:17;;;;;;;22.35;15.35;;;13.90;99.90;;;;;;5065171;28;20544;-77
2022/05/02 07:18:49;;;;;;;25.90;15.10;;;13.90;99.90;;;;;;5064386;28;20016;-77
2022/05/02 07:21:39;;;;;;;21.20;13.80;;;14.30;99.90;;;;;;5067427;28;20063;-77
2022/05/02 07:24:14;;;;;;;21.35;13.85;;;14.60;99.90;;;;;;5061023;28;20029;-77
2022/05/02 07:26:44;;;;;;;20.75;13.60;;;14.90;99.90;;;;;;5080461;28;20052;-76
2022/05/02 07:29:11;;;;;;;18.48;13.75;;;14.80;99.90;;;;;;5062404;28;20106;-77
2022/05/02 07:31:39;;;;;;;19.88;13.07;;;14.70;99.90;;;;;;5073346;28;20028;-77
2022/05/02 07:34:06;;;;;;;19.65;13.35;;;14.90;99.90;;;;;;5075058;28;20020;-77
2022/05/02 07:36:35;;;;;;;20.73;14.23;;;14.80;99.90;;;;;;5063030;28;20029;-77
2022/05/02 07:39:08;;;;;;;20.27;14.13;;;14.90;99.90;;;;;;5080711;28;20070;-77
2022/05/02 07:41:35;;;;;;;18.35;13.80;;;15.00;99.90;;;;;;5060065;28;20025;-77
2022/05/02 07:44:09;;;;;;;17.20;12.73;;;15.20;99.90;;;;;;5078628;28;20036;-77
2022/05/02 07:46:41;;;;;;;17.05;12.60;;;15.20;99.90;;;;;;5066159;28;20565;-77
2022/05/02 07:49:09;;;;;;;22.27;13.82;;;15.10;99.90;;;;;;5065438;28;20073;-77
2022/05/02 07:51:51;;;;;;;18.80;13.30;;;14.70;99.90;;;;;;5072710;28;20024;-77
2022/05/02 07:54:25;;;;;;;18.80;12.93;;;14.70;99.90;;;;;;5087387;28;20277;-77
2022/05/02 07:56:55;;;;;;;17.15;12.68;;;14.80;99.90;;;;;;5061174;28;20510;-77
2022/05/02 07:59:26;;;;;;;19.00;12.88;;;14.70;99.90;;;;;;5065589;28;20025;-77
2022/05/02 08:01:53;;;;;;;19.08;13.93;;;14.60;99.90;;;;;;5067469;28;20294;-77
2022/05/02 08:04:22;;;;;;;19.02;13.63;;;14.60;99.90;;;;;;5078394;28;20089;-78
2022/05/02 08:07:09;;;;;;;19.35;13.07;;;14.60;99.90;;;;;;5073711;28;20024;-77
2022/05/02 08:09:53;;;;;;;19.80;13.15;;;14.70;99.90;;;;;;5069885;28;20028;-77
2022/05/02 08:12:25;;;;;;;22.33;12.60;;;14.70;99.90;;;;;;5077329;28;20028;-77
2022/05/02 08:15:00;;;;;;;15.55;12.05;;;14.60;99.90;;;;;;5063603;28;20104;-77
2022/05/02 08:17:44;;;;;;;17.50;12.32;;;14.60;99.90;;;;;;5078283;28;20020;-77
2022/05/02 08:20:53;;;;;;;17.95;12.93;;;14.60;99.90;;;;;;5080773;28;20077;-77
2022/05/02 08:29:53;;;;;;;15.77;11.93;;;15.00;99.90;;;;;;4997887;28;20041;-77
2022/05/02 08:32:32;;;;;;;20.25;11.18;;;15.10;99.90;;;;;;4996004;28;20034;-77
2022/05/02 08:35:16;;;;;;;17.13;12.65;;;15.20;99.90;;;;;;4978636;28;20177;-77
2022/05/02 08:38:19;;;;;;;15.90;11.98;;;15.40;99.90;;;;;;4993389;28;20030;-77
2022/05/02 08:40:47;;;;;;;17.73;11.98;;;15.60;99.90;;;;;;4999426;28;20041;-77
2022/05/02 08:43:34;;;;;;;18.80;12.18;;;15.70;99.90;;;;;;5000090;28;20038;-77
2022/05/02 08:46:05;;;;;;;17.30;12.55;;;15.50;99.90;;;;;;5003493;28;20116;-78
2022/05/02 08:52:20;;;;;;;17.02;13.13;;;16.10;99.90;;;;;;4984770;28;20129;-77
2022/05/02 08:55:04;;;;;;;18.17;12.13;;;15.90;99.90;;;;;;5043262;28;20051;-77
2022/05/02 08:58:03;;;;;;;19.88;13.45;;;16.50;99.90;;;;;;5060934;28;20049;-77
2022/05/02 09:00:32;;;;;;;16.60;12.95;;;17.00;99.90;;;;;;5070405;28;20073;-77
2022/05/02 09:03:29;;;;;;;17.42;12.73;;;16.90;99.90;;;;;;5069296;28;20025;-77
2022/05/02 09:06:27;;;;;;;15.48;11.60;;;16.70;99.90;;;;;;5061411;28;20028;-77
2022/05/02 09:09:10;;;;;;;14.82;11.40;;;16.80;99.90;;;;;;5060140;28;20029;-78
2022/05/02 09:11:47;;;;;;;20.23;13.10;;;17.00;99.90;;;;;;5072957;28;20052;-77
2022/05/02 09:14:25;;;;;;;19.23;12.63;;;17.00;99.90;;;;;;5074950;28;20028;-77
2022/05/02 09:17:29;;;;;;;20.48;11.75;;;17.40;99.90;;;;;;5073718;28;20034;-77
2022/05/02 09:20:14;;;;;;;15.73;11.30;;;18.30;99.90;;;;;;5068433;28;20103;-78
2022/05/02 09:23:01;;;;;;;17.52;11.85;;;18.70;99.90;;;;;;5069043;28;20047;-77
2022/05/02 09:25:59;;;;;;;15.82;10.68;;;18.00;99.90;;;;;;5061214;28;20050;-77
2022/05/02 09:28:48;;;;;;;12.95;11.15;;;17.60;99.90;;;;;;5067843;28;20029;-77
2022/05/02 09:31:47;;;;;;;13.82;11.13;;;17.30;99.90;;;;;;5054032;28;20032;-77
2022/05/02 09:34:32;;;;;;;15.38;11.23;;;17.40;99.90;;;;;;5060982;28;20024;-77
2022/05/02 09:37:05;;;;;;;14.43;11.15;;;17.60;99.90;;;;;;5067056;28;20021;-77
2022/05/02 09:39:47;;;;;;;12.90;10.07;;;17.40;99.90;;;;;;5063561;28;20028;-77
2022/05/02 09:42:24;;;;;;;12.93;11.27;;;17.40;99.90;;;;;;5061911;28;20024;-76
2022/05/02 09:51:51;;;;;;;13.00;10.27;;;16.80;99.90;;;;;;5066933;28;20099;-76
2022/05/02 09:57:54;;;;;;;16.42;11.20;;;16.80;99.90;;;;;;5006538;28;20050;-76
2022/05/02 10:03:25;;;;;;;14.40;10.15;;;16.90;99.90;;;;;;5009121;28;20100;-76
2022/05/02 10:06:06;;;;;;;16.15;10.48;;;17.40;99.90;;;;;;5013110;28;20106;-76
2022/05/02 10:08:32;;;;;;;14.60;11.10;;;17.50;99.90;;;;;;5014575;28;20050;-76
2022/05/02 10:11:09;;;;;;;15.05;11.05;;;17.40;99.90;;;;;;5009308;28;20033;-76
2022/05/02 10:13:35;;;;;;;16.02;11.70;;;17.50;99.90;;;;;;5019499;28;20029;-76
2022/05/02 10:16:06;;;;;;;15.10;11.27;;;17.80;99.90;;;;;;5015068;28;20048;-76
2022/05/02 10:18:47;;;;;;;15.23;10.43;;;18.40;99.90;;;;;;5012803;28;20092;-76
2022/05/02 10:21:24;;;;;;;14.43;10.90;;;18.40;99.90;;;;;;5012893;28;20598;-76
2022/05/02 10:23:58;;;;;;;16.95;11.23;;;17.90;99.90;;;;;;5020852;28;20132;-76
2022/05/02 10:26:31;;;;;;;13.57;10.80;;;18.20;99.90;;;;;;5008848;28;20034;-76
2022/05/02 10:29:27;;;;;;;14.48;11.73;;;18.00;99.90;;;;;;5009224;28;20041;-76
2022/05/02 10:32:05;;;;;;;14.25;10.68;;;18.00;99.90;;;;;;5011662;28;20157;-76
2022/05/02 10:34:33;;;;;;;11.93;9.50;;;18.20;99.90;;;;;;5043145;28;20052;-77
2022/05/02 10:37:03;;;;;;;13.45;10.32;;;18.50;99.90;;;;;;5071676;28;20027;-76
2022/05/02 10:39:38;;;;;;;15.00;10.47;;;18.80;99.90;;;;;;5075131;28;20032;-77
2022/05/02 10:42:06;;;;;;;13.00;10.18;;;18.70;99.70;;;;;;5083505;28;20106;-76
2022/05/02 10:45:08;;;;;;;10.68;9.30;;;18.90;99.80;;;;;;5068704;28;20347;-76
2022/05/02 10:47:46;;;;;;;11.52;9.35;;;19.40;98.20;;;;;;5070960;28;20056;-76
2022/05/02 10:50:19;;;;;;;11.27;8.38;;;19.30;97.80;;;;;;5073766;28;20021;-76
2022/05/02 10:52:47;;;;;;;12.32;9.27;;;19.20;98.60;;;;;;5062559;28;20032;-76
2022/05/02 10:55:31;;;;;;;12.48;9.48;;;19.00;98.60;;;;;;5064322;28;20510;-76
2022/05/02 10:58:05;;;;;;;11.30;9.05;;;19.30;99.10;;;;;;5068900;28;20091;-76
2022/05/02 11:00:33;;;;;;;12.18;9.70;;;18.90;99.30;;;;;;5073920;28;20016;-76
2022/05/02 11:03:25;;;;;;;14.38;10.13;;;19.20;99.90;;;;;;5086505;28;20052;-76
2022/05/02 11:06:03;;;;;;;12.25;9.65;;;19.00;99.40;;;;;;5061826;28;20032;-76
2022/05/02 11:08:44;;;;;;;12.27;10.00;;;19.50;99.30;;;;;;5067948;28;20119;-76
2022/05/02 11:11:20;;;;;;;14.05;9.77;;;19.00;99.50;;;;;;5064631;28;20028;-76
2022/05/02 11:14:04;;;;;;;12.00;8.65;;;19.00;99.80;;;;;;5063098;28;20032;-76
2022/05/02 11:16:41;;;;;;;11.65;8.52;;;19.40;99.70;;;;;;5069929;28;20077;-76
2022/05/02 11:22:30;;;;;;;10.95;9.10;;;19.50;98.80;;;;;;5059114;28;20113;-76
2022/05/02 11:25:10;;;;;;;11.30;8.95;;;19.20;98.30;;;;;;5069403;28;20035;-76
2022/05/02 11:28:06;;;;;;;11.95;9.60;;;18.90;98.60;;;;;;5061551;28;20024;-76
2022/05/02 11:30:47;;;;;;;14.02;9.95;;;19.20;99.60;;;;;;5064042;28;20032;-76
2022/05/02 11:33:24;;;;;;;14.40;10.23;;;19.40;98.60;;;;;;5057190;28;20025;-76
2022/05/02 11:35:55;;;;;;;11.98;10.57;;;19.00;98.20;;;;;;5069805;28;20946;-77
2022/05/02 11:38:29;;;;;;;13.60;9.77;;;19.30;99.70;;;;;;5078461;28;20024;-77
2022/05/02 11:40:59;;;;;;;10.65;9.55;;;19.70;99.80;;;;;;5077955;28;20111;-76
2022/05/02 11:43:30;;;;;;;12.15;9.27;;;19.90;98.00;;;;;;5082790;28;20036;-77
2022/05/02 11:46:26;;;;;;;11.85;8.95;;;19.60;99.10;;;;;;5060810;28;20028;-76
2022/05/02 11:49:07;;;;;;;14.18;9.15;;;19.50;98.50;;;;;;5074627;28;20028;-76
2022/05/02 11:51:48;;;;;;;10.52;8.18;;;19.90;98.00;;;;;;5064600;28;20025;-77
2022/05/02 11:54:34;;;;;;;12.93;8.40;;;20.30;97.90;;;;;;5067020;28;20489;-76
2022/05/02 11:57:29;;;;;;;11.52;8.82;;;20.30;98.20;;;;;;5058579;28;20044;-76
2022/05/02 12:00:09;;;;;;;13.45;9.52;;;20.10;98.00;;;;;;5058254;28;20578;-76
2022/05/02 12:03:15;;;;;;;11.18;8.25;;;19.60;98.10;;;;;;5058231;28;20028;-77
2022/05/02 12:05:42;;;;;;;10.52;8.38;;;19.90;98.20;;;;;;5073397;28;20056;-76
2022/05/02 12:08:10;;;;;;;8.88;7.97;;;20.00;97.40;;;;;;5069018;28;20080;-76
2022/05/02 12:10:46;;;;;;;10.18;8.23;;;20.20;98.30;;;;;;5065201;28;20041;-75
2022/05/02 12:13:15;;;;;;;9.98;7.80;;;20.20;97.50;;;;;;5061254;28;20434;-74
2022/05/02 12:16:00;;;;;;;9.95;8.27;;;20.20;97.90;;;;;;5060882;28;20024;-75
2022/05/02 12:18:55;;;;;;;11.07;8.98;;;19.70;98.30;;;;;;5069548;28;20029;-75
2022/05/02 12:21:33;;;;;;;11.85;8.10;;;19.70;98.10;;;;;;5049845;28;20052;-76
2022/05/02 12:24:03;;;;;;;10.18;8.13;;;20.10;98.20;;;;;;5070973;28;20020;-76
2022/05/02 12:26:32;;;;;;;10.32;8.30;;;20.30;97.50;;;;;;5079896;28;20533;-75
2022/05/02 12:29:04;;;;;;;9.48;8.25;;;20.60;97.70;;;;;;5068183;28;20031;-75
2022/05/02 12:31:36;;;;;;;12.35;8.38;;;20.50;97.40;;;;;;5070154;28;20036;-76
2022/05/02 12:34:10;;;;;;;12.15;8.07;;;20.30;97.80;;;;;;5068319;28;20033;-75
2022/05/02 12:36:44;;;;;;;11.45;9.35;;;19.90;97.20;;;;;;5052698;28;20025;-76
2022/05/02 12:39:39;;;;;;;11.52;8.95;;;19.80;98.30;;;;;;5059588;28;20033;-76
2022/05/02 12:42:19;;;;;;;8.75;7.85;;;19.90;97.60;;;;;;5056643;28;20600;-76
2022/05/02 12:44:52;;;;;;;10.15;7.22;;;20.00;97.90;;;;;;5075036;28;20033;-76
2022/05/02 12:47:21;;;;;;;9.60;7.78;;;20.20;97.30;;;;;;5069131;28;20029;-75
2022/05/02 12:50:16;;;;;;;11.63;7.50;;;20.40;96.80;;;;;;5071748;28;20054;-75
2022/05/02 12:52:45;;;;;;;10.50;7.40;;;20.60;97.50;;;;;;5077866;28;20077;-75
2022/05/02 12:55:13;;;;;;;9.77;7.03;;;20.90;96.60;;;;;;5080985;28;20100;-75
2022/05/02 13:00:53;;;;;;;10.83;8.00;;;21.20;95.40;;;;;;5057125;28;20074;-75
2022/05/02 13:03:23;;;;;;;8.43;7.05;;;20.80;95.80;;;;;;5064327;28;20498;-75
2022/05/02 13:05:57;;;;;;;9.40;6.95;;;20.80;96.20;;;;;;5067969;28;20013;-75
2022/05/02 13:08:33;;;;;;;7.97;7.18;;;21.30;95.50;;;;;;5076455;28;20479;-75
2022/05/02 13:11:09;;;;;;;8.63;6.95;;;21.40;96.00;;;;;;5068075;28;20277;-75
2022/05/02 13:13:56;;;;;;;11.05;7.72;;;21.50;95.30;;;;;;5065363;28;20070;-75
2022/05/02 13:16:42;;;;;;;8.35;6.55;;;21.60;95.80;;;;;;5073912;28;20028;-76
2022/05/02 13:19:09;;;;;;;9.98;7.13;;;21.20;94.90;;;;;;5069777;28;20020;-75
2022/05/02 13:21:35;;;;;;;7.82;6.70;;;20.90;95.40;;;;;;5059429;28;20047;-76
2022/05/02 13:24:11;;;;;;;7.22;6.13;;;21.00;96.80;;;;;;5065223;28;20021;-76
2022/05/02 13:26:55;;;;;;;10.57;7.90;;;21.10;96.10;;;;;;5079795;28;20595;-76
2022/05/02 13:29:29;;;;;;;9.27;7.68;;;20.60;95.60;;;;;;5078312;28;20062;-77
2022/05/02 13:31:57;;;;;;;8.32;6.43;;;20.50;95.90;;;;;;5063687;28;20113;-77
2022/05/02 13:34:31;;;;;;;6.80;6.10;;;20.60;96.30;;;;;;5070741;28;20112;-76
2022/05/02 13:37:28;;;;;;;8.90;6.97;;;20.50;96.30;;;;;;5075496;28;20493;-77
2022/05/02 13:40:03;;;;;;;10.77;6.85;;;20.60;96.90;;;;;;5059732;28;20485;-77
2022/05/02 13:42:55;;;;;;;7.85;7.00;;;20.40;97.00;;;;;;5056797;28;20029;-77